createdAt,value
2022-09-20T00:00:23.888Z,8.56
2022-09-20T00:02:25.476Z,8.56
2022-09-20T00:04:27.029Z,8.40
2022-09-20T00:06:30.550Z,8.35
2022-09-20T00:08:32.553Z,8.45
2022-09-20T00:10:35.308Z,8.39
2022-09-20T00:12:36.872Z,8.55
2022-09-20T00:14:39.791Z,8.50
2022-09-20T00:16:41.561Z,8.48
2022-09-20T00:18:43.509Z,8.51
2022-09-20T00:20:45.851Z,8.47
2022-09-20T00:22:47.447Z,8.44
2022-09-20T00:24:49.234Z,8.41
2022-09-20T00:26:50.825Z,8.45
2022-09-20T00:28:52.886Z,8.65
2022-09-20T00:30:56.681Z,8.57
2022-09-20T00:32:58.271Z,8.57
2022-09-20T00:34:59.833Z,8.48
2022-09-20T00:37:01.377Z,8.38
2022-09-20T00:39:03.759Z,8.43
2022-09-20T00:41:05.393Z,8.52
2022-09-20T00:43:06.987Z,8.45
2022-09-20T00:45:17.879Z,8.32
2022-09-20T00:47:31.507Z,8.31
2022-09-20T00:49:36.242Z,8.39
2022-09-20T00:51:40.975Z,8.38
2022-09-20T00:53:47.758Z,8.39
2022-09-20T00:55:53.453Z,8.29
2022-09-20T00:57:55.517Z,8.32
2022-09-20T00:59:57.122Z,8.38
2022-09-20T01:02:02.522Z,8.33
2022-09-20T01:04:05.899Z,8.35
2022-09-20T01:06:11.798Z,8.34
2022-09-20T01:08:13.724Z,8.34
2022-09-20T01:10:15.405Z,8.29
2022-09-20T01:12:20.429Z,8.38
2022-09-20T01:14:23.276Z,8.42
2022-09-20T01:16:26.912Z,8.41
2022-09-20T01:18:31.876Z,8.37
2022-09-20T01:20:38.107Z,8.34
2022-09-20T01:23:10.977Z,8.28
2022-09-20T01:25:16.816Z,8.29
2022-09-20T01:27:26.565Z,8.31
2022-09-20T01:29:47.423Z,8.27
2022-09-20T01:31:54.048Z,8.19
2022-09-20T01:34:00.607Z,8.25
2022-09-20T01:36:05.439Z,8.24
2022-09-20T01:38:20.343Z,8.22
2022-09-20T01:40:27.805Z,8.27
2022-09-20T01:42:34.086Z,8.25
2022-09-20T01:44:41.325Z,8.12
2022-09-20T01:46:44.045Z,8.12
2022-09-20T01:48:47.666Z,8.23
2022-09-20T01:51:11.420Z,8.08
2022-09-20T01:53:47.266Z,8.06
2022-09-20T01:56:29.748Z,8.09
2022-09-20T01:59:27.105Z,8.08
2022-09-20T02:01:50.233Z,8.06
2022-09-20T02:04:09.820Z,8.04
2022-09-20T02:06:28.137Z,7.95
2022-09-20T02:09:06.534Z,8.09
2022-09-20T02:11:14.499Z,8.14
2022-09-20T02:13:29.423Z,8.09
2022-09-20T02:15:52.841Z,8.13
2022-09-20T02:18:09.134Z,8.19
2022-09-20T02:20:31.488Z,8.22
2022-09-20T02:22:43.114Z,8.22
2022-09-20T02:24:50.693Z,8.16
2022-09-20T02:27:05.195Z,8.21
2022-09-20T02:29:23.091Z,8.19
2022-09-20T02:31:44.724Z,8.22
2022-09-20T02:34:03.620Z,8.22
2022-09-20T02:36:20.629Z,8.24
2022-09-20T02:38:36.441Z,8.31
2022-09-20T02:41:05.806Z,8.33
2022-09-20T02:43:17.683Z,8.39
2022-09-20T02:45:26.237Z,8.40
2022-09-20T02:47:33.393Z,8.40
2022-09-20T02:49:45.914Z,8.34
2022-09-20T02:51:54.586Z,8.42
2022-09-20T02:54:15.472Z,8.50
2022-09-20T02:56:22.283Z,8.54
2022-09-20T02:58:38.810Z,8.56
2022-09-20T03:00:48.330Z,8.60
2022-09-20T03:03:04.794Z,8.55
2022-09-20T03:05:13.650Z,8.60
2022-09-20T03:07:25.764Z,8.54
2022-09-20T03:09:34.845Z,8.62
2022-09-20T03:11:43.810Z,8.54
2022-09-20T03:14:00.662Z,8.70
2022-09-20T03:16:11.078Z,8.71
2022-09-20T03:18:16.471Z,8.68
2022-09-20T03:20:30.105Z,8.70
2022-09-20T03:22:41.680Z,8.74
2022-09-20T03:24:57.270Z,8.68
2022-09-20T03:27:07.716Z,8.62
2022-09-20T03:29:19.515Z,8.59
2022-09-20T03:31:32.581Z,8.56
2022-09-20T03:33:46.588Z,8.60
2022-09-20T03:36:06.071Z,8.71
2022-09-20T03:38:23.305Z,8.74
2022-09-20T03:40:46.417Z,8.76
2022-09-20T03:42:51.390Z,8.80
2022-09-20T03:45:25.975Z,8.86
2022-09-20T03:47:47.981Z,8.84
2022-09-20T03:50:12.945Z,8.85
2022-09-20T03:52:28.058Z,8.93
2022-09-20T03:54:52.241Z,8.98
2022-09-20T03:57:22.762Z,9.05
2022-09-20T03:59:42.921Z,9.01
2022-09-20T04:02:04.418Z,9.03
2022-09-20T04:04:15.329Z,9.09
2022-09-20T04:06:44.583Z,8.97
2022-09-20T04:09:08.430Z,8.95
2022-09-20T04:11:20.236Z,9.00
2022-09-20T04:13:34.454Z,8.90
2022-09-20T04:15:45.516Z,8.99
2022-09-20T04:17:56.878Z,8.93
2022-09-20T04:20:03.506Z,8.90
2022-09-20T04:22:05.337Z,8.85
2022-09-20T04:24:15.030Z,8.82
2022-09-20T04:26:20.638Z,8.86
2022-09-20T04:28:28.509Z,8.91
2022-09-20T04:30:33.375Z,8.87
2022-09-20T04:32:42.020Z,8.96
2022-09-20T04:34:48.796Z,8.87
2022-09-20T04:36:58.228Z,8.89
2022-09-20T04:39:15.658Z,8.83
2022-09-20T04:41:29.102Z,8.88
2022-09-20T04:44:07.947Z,8.76
2022-09-20T04:46:47.541Z,8.80
2022-09-20T04:49:05.026Z,8.88
2022-09-20T04:51:26.551Z,8.97
2022-09-20T04:53:46.726Z,8.90
2022-09-20T04:55:55.091Z,8.94
2022-09-20T04:58:32.030Z,8.91
2022-09-20T05:00:49.047Z,8.96
2022-09-20T05:03:27.157Z,8.85
2022-09-20T05:06:07.755Z,8.88
2022-09-20T05:08:44.117Z,8.93
2022-09-20T05:11:21.851Z,8.99
2022-09-20T05:13:34.042Z,8.95
2022-09-20T05:15:41.357Z,8.96
2022-09-20T05:17:58.877Z,9.01
2022-09-20T05:20:19.953Z,8.95
2022-09-20T05:22:45.037Z,8.97
2022-09-20T05:25:05.117Z,8.99
2022-09-20T05:27:29.474Z,9.19
2022-09-20T05:29:38.209Z,9.25
2022-09-20T05:31:44.658Z,9.34
2022-09-20T05:33:54.145Z,9.28
2022-09-20T05:36:07.724Z,9.18
2022-09-20T05:38:18.482Z,9.26
2022-09-20T05:40:28.495Z,9.31
2022-09-20T05:42:40.818Z,9.40
2022-09-20T05:44:53.991Z,9.46
2022-09-20T05:47:04.746Z,9.45
2022-09-20T05:49:17.505Z,9.65
2022-09-20T05:51:33.418Z,9.80
2022-09-20T05:53:56.278Z,10.07
2022-09-20T05:56:06.008Z,10.25
2022-09-20T05:58:23.551Z,10.47
2022-09-20T06:00:30.192Z,10.49
2022-09-20T06:02:39.871Z,10.65
2022-09-20T06:04:51.631Z,10.63
2022-09-20T06:07:02.007Z,10.75
2022-09-20T06:09:23.756Z,10.76
2022-09-20T06:11:53.988Z,10.95
2022-09-20T06:14:08.929Z,10.81
2022-09-20T06:16:16.942Z,10.79
2022-09-20T06:18:25.845Z,10.92
2022-09-20T06:20:33.575Z,11.06
2022-09-20T06:22:38.484Z,11.02
2022-09-20T06:24:46.088Z,11.24
2022-09-20T06:26:50.453Z,11.16
2022-09-20T06:28:58.388Z,11.13
2022-09-20T06:31:01.639Z,11.13
2022-09-20T06:33:14.845Z,11.24
2022-09-20T06:35:16.338Z,11.36
2022-09-20T06:37:43.973Z,11.35
2022-09-20T06:39:52.970Z,11.44
2022-09-20T06:41:54.601Z,11.43
2022-09-20T06:43:56.741Z,11.47
2022-09-20T06:45:58.642Z,11.44
2022-09-20T06:48:01.888Z,11.42
2022-09-20T06:50:03.751Z,11.41
2022-09-20T06:52:05.950Z,11.29
2022-09-20T06:54:14.352Z,11.34
2022-09-20T06:56:19.382Z,11.39
2022-09-20T06:58:20.815Z,11.26
2022-09-20T07:00:22.123Z,11.39
2022-09-20T07:02:23.639Z,11.48
2022-09-20T07:04:26.481Z,11.65
2022-09-20T07:06:27.911Z,11.69
2022-09-20T07:08:29.366Z,11.75
2022-09-20T07:10:31.244Z,11.73
2022-09-20T07:12:32.673Z,11.76
2022-09-20T07:14:33.980Z,11.73
2022-09-20T07:16:35.476Z,11.89
2022-09-20T07:18:36.959Z,11.85
2022-09-20T07:20:41.170Z,11.96
2022-09-20T07:22:42.603Z,11.94
2022-09-20T07:24:43.912Z,11.89
2022-09-20T07:26:55.448Z,11.79
2022-09-20T07:28:57.810Z,11.55
2022-09-20T07:30:59.347Z,11.35
2022-09-20T07:33:00.782Z,11.30
2022-09-20T07:35:02.090Z,11.38
2022-09-20T07:37:04.961Z,11.42
2022-09-20T07:39:06.512Z,11.70
2022-09-20T07:41:08.954Z,11.82
2022-09-20T07:43:10.459Z,11.93
2022-09-20T07:45:11.972Z,12.01
2022-09-20T07:47:13.406Z,12.04
2022-09-20T07:49:14.738Z,12.01
2022-09-20T07:51:16.380Z,12.26
2022-09-20T07:53:19.289Z,12.31
2022-09-20T07:55:20.771Z,12.29
2022-09-20T07:57:22.273Z,12.12
2022-09-20T07:59:23.801Z,12.16
2022-09-20T08:01:25.317Z,12.13
2022-09-20T08:03:29.260Z,12.07
2022-09-20T08:05:30.718Z,12.07
2022-09-20T08:07:32.001Z,12.31
2022-09-20T08:09:35.008Z,12.31
2022-09-20T08:11:36.887Z,12.35
2022-09-20T08:16:01.568Z,12.38
2022-09-20T08:18:03.063Z,12.48
2022-09-20T08:20:05.106Z,12.62
2022-09-20T08:22:06.739Z,12.70
2022-09-20T08:24:08.211Z,12.60
2022-09-20T08:26:13.649Z,12.68
2022-09-20T08:28:15.134Z,12.80
2022-09-20T08:30:16.668Z,12.89
2022-09-20T08:32:18.172Z,13.10
2022-09-20T08:34:19.623Z,13.14
2022-09-20T08:36:22.977Z,13.06
2022-09-20T08:40:46.843Z,13.17
2022-09-20T08:42:50.081Z,13.07
2022-09-20T08:44:59.050Z,12.96
2022-09-20T08:47:06.935Z,13.18
2022-09-20T08:49:14.676Z,13.23
2022-09-20T08:51:22.585Z,13.42
2022-09-20T08:53:24.590Z,13.44
2022-09-20T08:55:28.772Z,13.43
2022-09-20T08:57:32.246Z,13.49
2022-09-20T08:59:35.080Z,13.46
2022-09-20T09:01:36.654Z,13.67
2022-09-20T09:03:38.163Z,13.73
2022-09-20T09:05:44.026Z,13.64
2022-09-20T09:07:46.888Z,13.76
2022-09-20T09:09:51.430Z,13.80
2022-09-20T09:11:54.688Z,13.82
2022-09-20T09:14:00.760Z,13.82
2022-09-20T09:16:12.072Z,13.87
2022-09-20T09:18:13.978Z,13.90
2022-09-20T09:20:18.032Z,13.82
2022-09-20T09:22:23.088Z,13.87
2022-09-20T09:24:24.676Z,13.68
2022-09-20T09:26:26.106Z,13.83
2022-09-20T09:28:27.568Z,14.02
2022-09-20T09:30:31.832Z,14.17
2022-09-20T09:32:34.593Z,14.14
2022-09-20T09:34:36.034Z,14.30
2022-09-20T09:36:43.789Z,14.23
2022-09-20T09:38:46.380Z,14.49
2022-09-20T09:40:53.824Z,14.43
2022-09-20T09:42:57.316Z,14.49
2022-09-20T09:45:10.985Z,14.49
2022-09-20T09:47:25.437Z,14.50
2022-09-20T09:49:29.989Z,14.45
2022-09-20T09:51:31.510Z,14.58
2022-09-20T09:53:33.154Z,14.57
2022-09-20T09:55:54.818Z,14.73
2022-09-20T09:58:05.763Z,14.89
2022-09-20T10:00:19.122Z,14.92
2022-09-20T10:02:37.595Z,14.94
2022-09-20T10:04:49.759Z,14.94
2022-09-20T10:07:04.052Z,14.89
2022-09-20T10:09:21.065Z,14.66
2022-09-20T10:11:30.307Z,14.56
2022-09-20T10:13:40.930Z,14.49
2022-09-20T10:15:49.278Z,14.53
2022-09-20T10:18:01.797Z,14.63
2022-09-20T10:20:20.094Z,14.75
2022-09-20T10:22:33.389Z,14.78
2022-09-20T10:24:51.037Z,14.72
2022-09-20T10:27:14.764Z,14.87
2022-09-20T10:29:28.557Z,15.03
2022-09-20T10:31:40.052Z,15.12
2022-09-20T10:33:47.681Z,14.80
2022-09-20T10:35:55.150Z,14.98
2022-09-20T10:38:13.307Z,14.92
2022-09-20T10:40:26.827Z,14.92
2022-09-20T10:42:36.008Z,14.75
2022-09-20T10:44:49.888Z,14.85
2022-09-20T10:47:00.912Z,14.87
2022-09-20T10:49:12.250Z,14.85
2022-09-20T10:51:24.281Z,15.01
2022-09-20T10:53:35.703Z,15.29
2022-09-20T10:55:43.312Z,15.47
2022-09-20T10:57:53.183Z,15.64
2022-09-20T11:00:03.177Z,15.72
2022-09-20T11:02:21.917Z,15.88
2022-09-20T11:04:45.934Z,16.00
2022-09-20T11:06:55.593Z,15.88
2022-09-20T11:08:59.956Z,15.52
2022-09-20T11:11:07.164Z,15.25
2022-09-20T11:13:19.315Z,15.07
2022-09-20T11:15:25.984Z,14.66
2022-09-20T11:17:33.069Z,14.63
2022-09-20T11:19:46.747Z,14.62
2022-09-20T11:21:55.134Z,14.77
2022-09-20T11:24:02.728Z,14.46
2022-09-20T11:26:07.464Z,14.48
2022-09-20T11:28:14.125Z,14.47
2022-09-20T11:30:17.763Z,14.30
2022-09-20T11:32:24.853Z,14.23
2022-09-20T11:34:30.353Z,13.96
2022-09-20T11:36:38.654Z,13.71
2022-09-20T11:38:52.885Z,13.22
2022-09-20T11:40:59.175Z,12.92
2022-09-20T11:43:04.004Z,12.51
2022-09-20T11:45:06.661Z,12.09
2022-09-20T11:47:36.607Z,11.77
2022-09-20T11:49:55.355Z,11.25
2022-09-20T11:52:14.384Z,11.50
2022-09-20T11:54:41.458Z,11.43
2022-09-20T11:56:50.225Z,11.35
2022-09-20T11:58:53.330Z,11.41
2022-09-20T12:00:58.826Z,11.45
2022-09-20T12:03:00.867Z,11.55
2022-09-20T12:05:05.375Z,11.44
2022-09-20T12:07:20.442Z,11.55
2022-09-20T12:09:27.916Z,11.76
2022-09-20T12:11:31.986Z,11.83
2022-09-20T12:13:36.515Z,11.99
2022-09-20T12:15:40.046Z,12.21
2022-09-20T12:18:09.627Z,12.58
2022-09-20T12:20:44.509Z,13.00
2022-09-20T12:22:45.991Z,13.14
2022-09-20T12:25:27.327Z,13.26
2022-09-20T12:27:56.423Z,13.54
2022-09-20T12:30:15.049Z,13.55
2022-09-20T12:32:33.108Z,13.44
2022-09-20T12:34:36.540Z,13.52
2022-09-20T12:36:39.963Z,13.53
2022-09-20T12:38:53.858Z,13.79
2022-09-20T12:41:07.131Z,13.76
2022-09-20T12:43:17.128Z,13.55
2022-09-20T12:45:18.990Z,13.51
2022-09-20T12:47:22.508Z,13.08
2022-09-20T12:49:40.556Z,13.09
2022-09-20T12:51:42.036Z,12.80
2022-09-20T12:53:57.300Z,13.02
2022-09-20T12:56:07.470Z,13.23
2022-09-20T12:58:36.734Z,13.49
2022-09-20T13:00:40.846Z,13.65
2022-09-20T13:02:57.175Z,13.84
2022-09-20T13:04:58.656Z,13.75
2022-09-20T13:07:38.882Z,13.72
2022-09-20T13:09:44.785Z,13.48
2022-09-20T13:11:51.811Z,13.27
2022-09-20T13:13:57.654Z,13.03
2022-09-20T13:16:01.538Z,12.83
2022-09-20T13:18:05.324Z,12.69
2022-09-20T13:20:14.933Z,12.61
2022-09-20T13:22:22.698Z,12.33
2022-09-20T13:24:24.762Z,12.23
2022-09-20T13:26:29.630Z,11.97
2022-09-20T13:28:44.135Z,11.76
2022-09-20T13:30:45.600Z,11.44
2022-09-20T13:32:48.485Z,11.31
2022-09-20T13:35:05.255Z,11.08
2022-09-20T13:37:17.257Z,10.97
2022-09-20T13:39:26.097Z,10.96
2022-09-20T13:41:30.086Z,11.00
2022-09-20T13:43:36.260Z,11.13
2022-09-20T13:45:42.239Z,11.28
2022-09-20T13:47:48.393Z,11.33
2022-09-20T13:49:49.985Z,11.42
2022-09-20T13:51:51.747Z,11.36
2022-09-20T13:53:53.831Z,11.42
2022-09-20T13:55:55.465Z,11.48
2022-09-20T13:58:01.233Z,11.54
2022-09-20T14:00:04.323Z,11.59
2022-09-20T14:02:20.993Z,11.61
2022-09-20T14:04:25.277Z,11.56
2022-09-20T14:06:27.012Z,11.53
2022-09-20T14:08:31.689Z,11.72
2022-09-20T14:10:35.091Z,11.70
2022-09-20T14:12:37.521Z,11.60
2022-09-20T14:14:40.131Z,11.65
2022-09-20T14:16:45.257Z,11.87
2022-09-20T14:18:49.074Z,11.93
2022-09-20T14:20:51.386Z,11.99
2022-09-20T14:22:57.218Z,12.01
2022-09-20T14:25:02.709Z,12.22
2022-09-20T14:27:14.840Z,12.38
2022-09-20T14:29:29.056Z,12.53
2022-09-20T14:31:34.284Z,12.63
2022-09-20T14:33:40.760Z,12.68
2022-09-20T14:35:49.436Z,12.63
2022-09-20T14:37:54.815Z,12.74
2022-09-20T14:39:58.427Z,12.93
2022-09-20T14:42:00.039Z,13.07
2022-09-20T14:44:02.681Z,13.16
2022-09-20T14:46:06.448Z,13.23
2022-09-20T14:48:36.590Z,13.19
2022-09-20T14:50:40.107Z,13.17
2022-09-20T14:52:42.901Z,13.17
2022-09-20T14:54:58.699Z,13.06
2022-09-20T14:57:00.836Z,13.20
2022-09-20T14:59:19.031Z,13.20
2022-09-20T15:01:23.678Z,13.15
2022-09-20T15:03:28.509Z,12.93
2022-09-20T15:05:29.977Z,13.00
2022-09-20T15:07:31.433Z,13.05
2022-09-20T15:09:34.466Z,13.04
2022-09-20T15:11:35.877Z,12.93
2022-09-20T15:13:37.179Z,12.97
2022-09-20T15:15:38.679Z,12.96
2022-09-20T15:17:40.246Z,12.97
2022-09-20T15:19:41.824Z,12.99
2022-09-20T15:21:43.246Z,12.94
2022-09-20T15:23:44.516Z,12.89
2022-09-20T15:25:50.219Z,12.77
2022-09-20T15:27:51.668Z,12.71
2022-09-20T15:29:53.120Z,12.58
2022-09-20T15:31:54.617Z,12.63
2022-09-20T15:33:56.110Z,12.69
2022-09-20T15:35:58.647Z,12.56
2022-09-20T15:38:00.274Z,12.44
2022-09-20T15:40:02.516Z,12.45
2022-09-20T15:42:05.642Z,12.55
2022-09-20T15:44:07.773Z,12.60
2022-09-20T15:46:17.684Z,12.78
2022-09-20T15:48:21.554Z,12.82
2022-09-20T15:50:23.929Z,12.74
2022-09-20T15:52:25.465Z,12.87
2022-09-20T15:54:26.877Z,12.92
2022-09-20T15:56:28.897Z,12.82
2022-09-20T15:58:35.878Z,12.81
2022-09-20T16:00:38.067Z,12.64
2022-09-20T16:02:39.551Z,12.41
2022-09-20T16:04:40.843Z,12.34
2022-09-20T16:06:44.540Z,12.16
2022-09-20T16:08:46.099Z,11.90
2022-09-20T16:10:56.028Z,11.74
2022-09-20T16:12:57.506Z,11.75
2022-09-20T16:15:00.317Z,11.63
2022-09-20T16:17:01.797Z,11.65
2022-09-20T16:19:03.415Z,11.44
2022-09-20T16:21:07.345Z,11.67
2022-09-20T16:23:08.807Z,11.80
2022-09-20T16:25:10.089Z,11.67
2022-09-20T16:27:11.559Z,11.73
2022-09-20T16:29:13.089Z,11.75
2022-09-20T16:31:35.881Z,11.80
2022-09-20T16:33:37.394Z,11.83
2022-09-20T16:35:38.873Z,11.84
2022-09-20T16:37:40.327Z,11.87
2022-09-20T16:39:41.859Z,11.87
2022-09-20T16:41:44.938Z,11.82
2022-09-20T16:43:46.395Z,11.85
2022-09-20T16:45:48.035Z,11.76
2022-09-20T16:47:50.848Z,11.64
2022-09-20T16:49:52.282Z,11.60
2022-09-20T16:51:53.571Z,11.56
2022-09-20T16:53:55.126Z,11.51
2022-09-20T16:55:56.539Z,11.44
2022-09-20T16:57:57.846Z,11.45
2022-09-20T16:59:59.304Z,11.45
2022-09-20T17:02:00.745Z,11.39
2022-09-20T17:04:04.207Z,11.32
2022-09-20T17:06:06.419Z,11.30
2022-09-20T17:08:07.908Z,11.34
2022-09-20T17:10:10.116Z,11.23
2022-09-20T17:12:11.557Z,11.24
2022-09-20T17:14:13.363Z,11.20
2022-09-20T17:16:17.039Z,11.20
2022-09-20T17:18:18.505Z,11.18
2022-09-20T17:20:21.114Z,11.15
2022-09-20T17:22:22.698Z,11.07
2022-09-20T17:24:24.169Z,11.06
2022-09-20T17:26:27.138Z,11.01
2022-09-20T17:28:28.626Z,11.00
2022-09-20T17:30:30.080Z,10.98
2022-09-20T17:32:31.531Z,10.93
2022-09-20T17:34:33.235Z,10.93
2022-09-20T17:36:38.241Z,10.86
2022-09-20T17:38:39.701Z,10.91
2022-09-20T17:40:41.302Z,10.87
2022-09-20T17:42:42.802Z,10.87
2022-09-20T17:44:44.270Z,10.88
2022-09-20T17:46:47.555Z,10.89
2022-09-20T17:48:52.192Z,10.89
2022-09-20T17:50:57.344Z,10.86
2022-09-20T17:53:00.179Z,10.90
2022-09-20T17:55:01.625Z,10.87
2022-09-20T17:57:03.278Z,10.92
2022-09-20T17:59:06.021Z,10.91
2022-09-20T18:01:12.547Z,10.97
2022-09-20T18:03:14.470Z,10.93
2022-09-20T18:05:16.105Z,10.90
2022-09-20T18:07:17.544Z,10.83
2022-09-20T18:09:20.917Z,10.79
2022-09-20T18:11:26.491Z,10.73
2022-09-20T18:13:28.073Z,10.77
2022-09-20T18:15:29.540Z,10.70
2022-09-20T18:17:30.864Z,10.59
2022-09-20T18:19:32.443Z,10.65
2022-09-20T18:21:35.198Z,10.65
2022-09-20T18:23:36.644Z,10.66
2022-09-20T18:25:39.283Z,10.65
2022-09-20T18:27:40.790Z,10.59
2022-09-20T18:29:42.243Z,10.53
2022-09-20T18:31:47.596Z,10.54
2022-09-20T18:33:52.431Z,10.57
2022-09-20T18:36:00.547Z,10.49
2022-09-20T18:38:01.981Z,10.50
2022-09-20T18:40:03.677Z,10.47
2022-09-20T18:42:06.944Z,10.44
2022-09-20T18:44:10.986Z,10.40
2022-09-20T18:46:12.575Z,10.27
2022-09-20T18:48:14.114Z,10.39
2022-09-20T18:50:15.515Z,10.29
2022-09-20T18:52:16.970Z,10.31
2022-09-20T18:54:18.528Z,10.28
2022-09-20T18:56:22.868Z,10.18
2022-09-20T18:58:25.956Z,10.11
2022-09-20T19:00:27.921Z,10.15
2022-09-20T19:02:50.789Z,10.14
2022-09-20T19:05:13.252Z,10.05
2022-09-20T19:07:24.719Z,10.07
2022-09-20T19:09:34.931Z,10.11
2022-09-20T19:11:42.347Z,10.06
2022-09-20T19:13:50.872Z,10.00
2022-09-20T19:16:04.195Z,10.00
2022-09-20T19:18:23.475Z,9.86
2022-09-20T19:20:32.242Z,9.79
2022-09-20T19:22:48.475Z,9.70
2022-09-20T19:25:06.167Z,9.69
2022-09-20T19:27:10.643Z,9.68
2022-09-20T19:29:18.712Z,9.67
2022-09-20T19:31:23.716Z,9.65
2022-09-20T19:33:25.562Z,9.60
2022-09-20T19:35:34.564Z,9.63
2022-09-20T19:37:43.846Z,9.65
2022-09-20T19:40:03.039Z,9.59
2022-09-20T19:42:17.703Z,9.50
2022-09-20T19:44:35.595Z,9.40
2022-09-20T19:46:59.605Z,9.45
2022-09-20T19:49:12.498Z,9.50
2022-09-20T19:51:14.282Z,9.48
2022-09-20T19:53:18.109Z,9.55
2022-09-20T19:55:20.046Z,9.52
2022-09-20T19:57:23.951Z,9.44
2022-09-20T19:59:28.299Z,9.36
2022-09-20T20:01:30.305Z,9.35
2022-09-20T20:03:32.469Z,9.39
2022-09-20T20:05:34.420Z,9.38
2022-09-20T20:07:44.483Z,9.37
2022-09-20T20:09:55.858Z,9.42
2022-09-20T20:12:05.584Z,9.40
2022-09-20T20:14:18.914Z,9.42
2022-09-20T20:16:36.293Z,9.40
2022-09-20T20:18:48.323Z,9.28
2022-09-20T20:20:52.369Z,9.30
2022-09-20T20:23:13.122Z,9.23
2022-09-20T20:25:24.410Z,9.21
2022-09-20T20:27:26.182Z,9.28
2022-09-20T20:29:27.622Z,9.21
2022-09-20T20:31:30.462Z,9.28
2022-09-20T20:33:32.049Z,9.11
2022-09-20T20:35:33.501Z,9.14
2022-09-20T20:37:34.818Z,9.10
2022-09-20T20:39:36.313Z,9.08
2022-09-20T20:41:38.006Z,9.16
2022-09-20T20:43:41.138Z,9.02
2022-09-20T20:45:49.502Z,9.07
2022-09-20T20:47:55.950Z,9.10
2022-09-20T20:49:57.566Z,9.01
2022-09-20T20:51:58.993Z,9.05
2022-09-20T20:54:00.417Z,9.10
2022-09-20T20:56:03.631Z,9.11
2022-09-20T20:58:05.063Z,9.05
2022-09-20T21:00:07.197Z,9.02
2022-09-20T21:02:08.917Z,8.97
2022-09-20T21:04:12.576Z,8.99
2022-09-20T21:06:14.413Z,8.92
2022-09-20T21:08:15.896Z,8.90
2022-09-20T21:10:17.213Z,8.86
2022-09-20T21:12:18.657Z,8.85
2022-09-20T21:14:20.004Z,8.84
2022-09-20T21:16:24.084Z,8.77
2022-09-20T21:18:25.536Z,8.82
2022-09-20T21:20:28.205Z,8.76
2022-09-20T21:22:29.979Z,8.77
2022-09-20T21:24:31.451Z,8.81
2022-09-20T21:26:33.571Z,8.79
2022-09-20T21:28:36.504Z,8.69
2022-09-20T21:30:37.926Z,8.74
2022-09-20T21:32:39.289Z,8.72
2022-09-20T21:34:40.723Z,8.70
2022-09-20T21:36:43.752Z,8.79
2022-09-20T21:38:45.489Z,8.77
2022-09-20T21:40:46.917Z,8.75
2022-09-20T21:42:48.180Z,8.73
2022-09-20T21:44:49.644Z,8.75
2022-09-20T21:46:50.920Z,8.71
2022-09-20T21:48:52.376Z,8.67
2022-09-20T21:50:59.838Z,8.66
2022-09-20T21:53:02.616Z,8.68
2022-09-20T21:55:04.770Z,8.70
2022-09-20T21:57:06.239Z,8.67
2022-09-20T21:59:07.536Z,8.63
2022-09-20T22:01:11.467Z,8.59
2022-09-20T22:03:13.092Z,8.69
2022-09-20T22:05:14.512Z,8.66
2022-09-20T22:07:15.944Z,8.66
2022-09-20T22:09:18.600Z,8.68
2022-09-20T22:11:21.366Z,8.65
2022-09-20T22:13:22.946Z,8.65
2022-09-20T22:15:24.423Z,8.59
2022-09-20T22:17:25.698Z,8.60
2022-09-20T22:19:27.120Z,8.62
2022-09-20T22:21:29.471Z,8.62
2022-09-20T22:23:30.948Z,8.55
2022-09-20T22:25:33.581Z,8.46
2022-09-20T22:27:35.019Z,8.49
2022-09-20T22:29:36.285Z,8.53
2022-09-20T22:31:39.593Z,8.54
2022-09-20T22:33:42.835Z,8.43
2022-09-20T22:35:44.458Z,8.39
2022-09-20T22:37:46.017Z,8.39
2022-09-20T22:39:47.473Z,8.41
2022-09-20T22:41:50.624Z,8.44
2022-09-20T22:43:52.062Z,8.46
2022-09-20T22:45:53.414Z,8.39
2022-09-20T22:47:54.870Z,8.39
2022-09-20T22:49:56.182Z,8.39
2022-09-20T22:51:57.751Z,8.41
2022-09-20T22:53:59.560Z,8.46
2022-09-20T22:56:09.248Z,8.47
2022-09-20T22:58:12.078Z,8.38
2022-09-20T23:00:14.401Z,8.24
2022-09-20T23:02:15.849Z,8.26
2022-09-20T23:04:18.138Z,8.25
2022-09-20T23:06:21.279Z,8.29
2022-09-20T23:08:22.801Z,8.27
2022-09-20T23:10:24.262Z,8.34
2022-09-20T23:12:25.542Z,8.35
2022-09-20T23:14:28.349Z,8.32
2022-09-20T23:16:31.516Z,8.30
2022-09-20T23:18:34.353Z,8.26
2022-09-20T23:20:35.757Z,8.28
2022-09-20T23:22:37.211Z,8.28
2022-09-20T23:24:38.530Z,8.20
2022-09-20T23:26:40.980Z,8.20
2022-09-20T23:28:44.524Z,8.20
2022-09-20T23:30:47.364Z,8.20
2022-09-20T23:32:48.839Z,8.18
2022-09-20T23:34:50.175Z,8.22
2022-09-20T23:36:51.615Z,8.26
2022-09-20T23:38:53.078Z,8.22
2022-09-20T23:40:54.539Z,8.23
2022-09-20T23:42:55.822Z,8.27
2022-09-20T23:44:57.292Z,8.37
2022-09-20T23:47:00.074Z,8.21
2022-09-20T23:49:01.621Z,8.24
2022-09-20T23:51:04.250Z,8.19
2022-09-20T23:53:05.735Z,8.19
2022-09-20T23:55:07.291Z,8.18
2022-09-20T23:57:08.760Z,8.24
2022-09-20T23:59:10.057Z,8.18
